Time;durP1;ratioP1;P1;durP2;ratioP2;P2;SDS_P1;SDS_P2;PMS_P1;PMS_P2;Temp;Humidity;BMP_temperature;BMP_pressure;BME280_temperature;BME280_humidity;BME280_pressure;Samples;Min_cycle;Max_cycle;Signal;HPM_P1;HPM_P2
2022/03/20 00:01:44;;;;;;;;;;;;;;;6.24;61.3125;103674.8;;;;-78
2022/03/20 00:06:43;;;;;;;;;;;;;;;6.23;61.26563;103667;;;;-80
2022/03/20 00:11:43;;;;;;;;;;;;;;;6.19;61.4043;103667.4;;;;-82
2022/03/20 00:14:07;;;;;;;7.4;3.1;;;;;;;;;;;;;-81
2022/03/20 00:16:43;;;;;;;;;;;;;;;6.15;61.55176;103663.2;;;;-79
2022/03/20 00:21:43;;;;;;;;;;;;;;;6.13;61.57031;103665.6;;;;-79
2022/03/20 00:26:44;;;;;;;;;;;;;;;6.09;61.58789;103659;;;;-79
2022/03/20 00:31:45;;;;;;;;;;;;;;;6.06;61.74805;103659.9;;;;-80
2022/03/20 00:36:45;;;;;;;;;;;;;;;6.02;61.57715;103647.3;;;;-79
2022/03/20 00:41:43;;;;;;;;;;;;;;;5.98;61.66016;103642;;;;-79
2022/03/20 00:44:06;;;;;;;10.4;3.4;;;;;;;;;;;;;-79
2022/03/20 00:46:49;;;;;;;;;;;;;;;5.94;61.67773;103639.8;;;;-80
2022/03/20 00:51:43;;;;;;;;;;;;;;;5.91;61.81543;103631.2;;;;-79
2022/03/20 00:56:47;;;;;;;;;;;;;;;5.87;62.05176;103621.3;;;;-80
2022/03/20 01:01:44;;;;;;;;;;;;;;;5.84;61.88281;103613.8;;;;-79
2022/03/20 01:06:44;;;;;;;;;;;;;;;5.82;61.85742;103603.6;;;;-80
2022/03/20 01:11:44;;;;;;;;;;;;;;;5.78;62.22559;103597.7;;;;-80
2022/03/20 01:14:06;;;;;;;9.3;3.7;;;;;;;;;;;;;-80
2022/03/20 01:16:43;;;;;;;;;;;;;;;5.74;62.36328;103589.4;;;;-80
2022/03/20 01:21:43;;;;;;;;;;;;;;;5.72;62.31543;103582.3;;;;-79
2022/03/20 01:26:46;;;;;;;;;;;;;;;5.68;62.67383;103576;;;;-78
2022/03/20 01:31:49;;;;;;;;;;;;;;;5.65;62.73438;103574.7;;;;-79
2022/03/20 01:36:43;;;;;;;;;;;;;;;5.61;62.99316;103556.3;;;;-79
2022/03/20 01:41:46;;;;;;;;;;;;;;;5.59;62.90234;103552.6;;;;-80
2022/03/20 01:44:06;;;;;;;12.1;3.6;;;;;;;;;;;;;-79
2022/03/20 01:46:44;;;;;;;;;;;;;;;5.57;63.04102;103537.4;;;;-79
2022/03/20 01:56:46;;;;;;;;;;;;;;;5.5;63.25195;103522.4;;;;-80
2022/03/20 02:01:43;;;;;;;;;;;;;;;5.47;63.39063;103518.7;;;;-79
2022/03/20 02:06:43;;;;;;;;;;;;;;;5.45;63.41992;103511.7;;;;-79
2022/03/20 02:11:43;;;;;;;;;;;;;;;5.4;63.58887;103505.9;;;;-79
2022/03/20 02:14:07;;;;;;;8.1;3.2;;;;;;;;;;;;;-80
2022/03/20 02:16:44;;;;;;;;;;;;;;;5.38;63.57324;103508.4;;;;-79
2022/03/20 02:21:44;;;;;;;;;;;;;;;5.34;64.07324;103496.9;;;;-80
2022/03/20 02:26:43;;;;;;;;;;;;;;;5.3;64.0459;103483.1;;;;-76
2022/03/20 02:31:43;;;;;;;;;;;;;;;5.28;63.99805;103476.6;;;;-80
2022/03/20 02:36:43;;;;;;;;;;;;;;;5.24;64.13672;103469.6;;;;-79
2022/03/20 02:41:43;;;;;;;;;;;;;;;5.21;64.04492;103458.3;;;;-78
2022/03/20 02:44:05;;;;;;;7.1;3.3;;;;;;;;;;;;;-79
2022/03/20 02:46:43;;;;;;;;;;;;;;;5.18;64.08203;103457;;;;-80
2022/03/20 02:51:44;;;;;;;;;;;;;;;5.13;64.22852;103440.7;;;;-80
2022/03/20 02:56:45;;;;;;;;;;;;;;;5.11;64.14941;103438.6;;;;-79
2022/03/20 03:01:44;;;;;;;;;;;;;;;5.07;64.23145;103426.2;;;;-80
2022/03/20 03:06:43;;;;;;;;;;;;;;;5.04;64.13965;103423.7;;;;-79
2022/03/20 03:11:43;;;;;;;;;;;;;;;5.01;64.33203;103419.4;;;;-79
2022/03/20 03:15:18;;;;;;;9.7;3.7;;;;;;;;;;;;;-80
2022/03/20 03:16:43;;;;;;;;;;;;;;;4.97;64.35938;103411.8;;;;-80
2022/03/20 03:21:43;;;;;;;;;;;;;;;4.92;64.43945;103401.9;;;;-80
2022/03/20 03:26:44;;;;;;;;;;;;;;;4.87;64.59668;103390.7;;;;-80
2022/03/20 03:31:43;;;;;;;;;;;;;;;4.85;64.41895;103388.2;;;;-78
2022/03/20 03:36:43;;;;;;;;;;;;;;;4.83;64.34863;103383;;;;-79
2022/03/20 03:41:43;;;;;;;;;;;;;;;4.8;64.125;103369.6;;;;-78
2022/03/20 03:44:07;;;;;;;10.4;5;;;;;;;;;;;;;-79
2022/03/20 03:46:43;;;;;;;;;;;;;;;4.76;64.20605;103372;;;;-79
2022/03/20 03:51:43;;;;;;;;;;;;;;;4.73;63.97168;103350.7;;;;-78
2022/03/20 03:56:43;;;;;;;;;;;;;;;4.68;64.03125;103356.6;;;;-79
2022/03/20 04:01:43;;;;;;;;;;;;;;;4.66;64.05957;103353.4;;;;-79
2022/03/20 04:06:43;;;;;;;;;;;;;;;4.61;64.10938;103347.9;;;;-81
2022/03/20 04:11:43;;;;;;;;;;;;;;;4.58;63.94922;103344;;;;-79
2022/03/20 04:14:06;;;;;;;14.8;5.5;;;;;;;;;;;;;-79
2022/03/20 04:16:43;;;;;;;;;;;;;;;4.52;64.05176;103332.4;;;;-79
2022/03/20 04:21:43;;;;;;;;;;;;;;;4.47;64.31738;103328.5;;;;-80
2022/03/20 04:26:43;;;;;;;;;;;;;;;4.44;64.30176;103324.7;;;;-78
2022/03/20 04:31:44;;;;;;;;;;;;;;;4.42;64.39746;103324.2;;;;-79
2022/03/20 04:36:43;;;;;;;;;;;;;;;4.38;64.37012;103321.5;;;;-80
2022/03/20 04:41:43;;;;;;;;;;;;;;;4.34;64.56055;103312.5;;;;-79
2022/03/20 04:44:07;;;;;;;11.1;5.2;;;;;;;;;;;;;-79
2022/03/20 04:46:43;;;;;;;;;;;;;;;4.31;64.66406;103307.6;;;;-78
2022/03/20 05:01:44;;;;;;;;;;;;;;;4.2;64.82422;103291.6;;;;-79
2022/03/20 05:06:44;;;;;;;;;;;;;;;4.17;64.80957;103279;;;;-79
2022/03/20 05:14:06;;;;;;;12.4;5.7;;;;;;;;;;;;;-78
2022/03/20 05:16:43;;;;;;;;;;;;;;;4.12;64.71387;103269.4;;;;-81
2022/03/20 05:21:43;;;;;;;;;;;;;;;4.1;64.66699;103266.3;;;;-79
2022/03/20 05:26:44;;;;;;;;;;;;;;;4.04;64.68066;103253.3;;;;-79
2022/03/20 05:31:43;;;;;;;;;;;;;;;4.02;64.6123;103243.2;;;;-80
2022/03/20 05:36:43;;;;;;;;;;;;;;;3.98;64.60547;103228.1;;;;-79
2022/03/20 05:41:52;;;;;;;;;;;;;;;3.98;64.58398;103225;;;;-78
2022/03/20 05:44:08;;;;;;;14.8;6.1;;;;;;;;;;;;;-78
2022/03/20 05:46:44;;;;;;;;;;;;;;;3.95;64.44824;103216.9;;;;-80
2022/03/20 05:51:46;;;;;;;;;;;;;;;3.91;64.49609;103213;;;;-78
2022/03/20 06:01:44;;;;;;;;;;;;;;;3.89;64.33008;103212.8;;;;-79
2022/03/20 06:06:43;;;;;;;;;;;;;;;3.88;64.22949;103203.4;;;;-80
2022/03/20 06:11:43;;;;;;;;;;;;;;;3.88;64.1748;103203.8;;;;-79
2022/03/20 06:14:06;;;;;;;15;6.2;;;;;;;;;;;;;-79
2022/03/20 06:16:43;;;;;;;;;;;;;;;3.9;64.03613;103208;;;;-81
2022/03/20 06:21:43;;;;;;;;;;;;;;;3.91;64.03613;103203.3;;;;-80
2022/03/20 06:26:43;;;;;;;;;;;;;;;3.95;63.9541;103198.4;;;;-79
2022/03/20 06:31:43;;;;;;;;;;;;;;;3.99;63.80762;103198.6;;;;-81
2022/03/20 06:36:43;;;;;;;;;;;;;;;4.06;63.69629;103193.1;;;;-81
2022/03/20 06:41:43;;;;;;;;;;;;;;;4.12;63.50879;103189.3;;;;-80
2022/03/20 06:44:08;;;;;;;19.1;6.9;;;;;;;;;;;;;-79
2022/03/20 06:46:46;;;;;;;;;;;;;;;4.19;63.41016;103184.1;;;;-78
2022/03/20 06:51:43;;;;;;;;;;;;;;;4.26;63.26758;103181.3;;;;-80
2022/03/20 06:56:43;;;;;;;;;;;;;;;4.36;63.12695;103177.5;;;;-78
2022/03/20 07:01:46;;;;;;;;;;;;;;;4.5;62.65527;103182.4;;;;-78
2022/03/20 07:06:45;;;;;;;;;;;;;;;4.62;62.38672;103179;;;;-80
2022/03/20 07:11:43;;;;;;;;;;;;;;;4.77;61.95801;103170.1;;;;-79
2022/03/20 07:14:07;;;;;;;18;7.8;;;;;;;;;;;;;-78
2022/03/20 07:16:44;;;;;;;;;;;;;;;4.83;61.81348;103171.2;;;;-79
2022/03/20 07:21:45;;;;;;;;;;;;;;;4.93;61.74023;103155.8;;;;-78
2022/03/20 07:31:46;;;;;;;;;;;;;;;5.3;60.94727;103150;;;;-80
2022/03/20 07:36:43;;;;;;;;;;;;;;;5.48;60.46582;103141.3;;;;-80
2022/03/20 07:41:43;;;;;;;;;;;;;;;5.65;60.21484;103125.5;;;;-80
2022/03/20 07:44:07;;;;;;;22.5;9;;;;;;;;;;;;;-80
2022/03/20 07:46:43;;;;;;;;;;;;;;;5.82;60.04102;103116.3;;;;-80
2022/03/20 07:51:43;;;;;;;;;;;;;;;6.04;60.07324;103093.7;;;;-81
2022/03/20 07:56:43;;;;;;;;;;;;;;;6.3;59.47852;103083.3;;;;-79
2022/03/20 08:01:44;;;;;;;;;;;;;;;6.51;58.99023;103085;;;;-79
2022/03/20 08:06:43;;;;;;;;;;;;;;;6.76;58.48438;103091.1;;;;-77
2022/03/20 08:11:44;;;;;;;;;;;;;;;6.96;57.61719;103087;;;;-78
2022/03/20 08:14:11;;;;;;;20.9;9.2;;;;;;;;;;;;;-79
2022/03/20 08:16:43;;;;;;;;;;;;;;;7.1;57.25879;103075.1;;;;-79
2022/03/20 08:21:43;;;;;;;;;;;;;;;7.27;56.92676;103051.3;;;;-78
2022/03/20 08:26:44;;;;;;;;;;;;;;;7.49;56.55859;103059.7;;;;-77
2022/03/20 08:31:44;;;;;;;;;;;;;;;7.68;55.63184;103044.4;;;;-79
2022/03/20 08:36:44;;;;;;;;;;;;;;;7.81;55.65918;103033;;;;-80
2022/03/20 08:41:43;;;;;;;;;;;;;;;8.01;55.52832;103031.5;;;;-80
2022/03/20 08:44:08;;;;;;;25.1;10.8;;;;;;;;;;;;;-80
2022/03/20 08:46:45;;;;;;;;;;;;;;;8.23;55.125;103009.1;;;;-81
2022/03/20 08:51:46;;;;;;;;;;;;;;;8.52;54.75195;103014.1;;;;-80
2022/03/20 08:56:45;;;;;;;;;;;;;;;8.82;53.91113;103021.2;;;;-79
2022/03/20 09:01:43;;;;;;;;;;;;;;;8.92;53.5459;102995.1;;;;-81
2022/03/20 09:06:47;;;;;;;;;;;;;;;8.98;53.14355;102982.2;;;;-81
2022/03/20 09:11:44;;;;;;;;;;;;;;;8.88;52.62988;102976.8;;;;-80
2022/03/20 09:14:07;;;;;;;23.3;11.5;;;;;;;;;;;;;-80
2022/03/20 09:21:46;;;;;;;;;;;;;;;8.26;52.67773;102989.1;;;;-80
2022/03/20 09:26:46;;;;;;;;;;;;;;;8.01;53.21289;102976.2;;;;-80
2022/03/20 09:31:50;;;;;;;;;;;;;;;7.84;53.72363;102952.2;;;;-80
2022/03/20 09:36:43;;;;;;;;;;;;;;;7.8;54.52734;102915.8;;;;-80
2022/03/20 09:41:45;;;;;;;;;;;;;;;7.82;54.41992;102909.7;;;;-79
2022/03/20 09:44:18;;;;;;;23.1;11.8;;;;;;;;;;;;;-82
2022/03/20 09:46:43;;;;;;;;;;;;;;;8.01;54.04492;102908.6;;;;-79
2022/03/20 09:51:43;;;;;;;;;;;;;;;8.09;53.59863;102925.8;;;;-82
2022/03/20 09:57:10;;;;;;;;;;;;;;;;;;;;;
2022/03/20 10:01:49;;;;;;;;;;;;;;;7.88;54.27246;102935.2;;;;-81
2022/03/20 10:06:45;;;;;;;;;;;;;;;7.78;55.15723;102941.4;;;;-82
2022/03/20 10:11:44;;;;;;;;;;;;;;;7.76;54.97656;102935.4;;;;-81
2022/03/20 10:14:20;;;;;;;25.1;11.9;;;;;;;;;;;;;-81
2022/03/20 10:16:48;;;;;;;;;;;;;;;7.76;54.86719;102935.9;;;;-81
2022/03/20 10:21:50;;;;;;;;;;;;;;;7.75;55.21875;102929.9;;;;-77
2022/03/20 10:51:45;;;;;;;;;;;;;;;8.19;54.90918;102838.4;;;;-79
2022/03/20 10:56:55;;;;;;;;;;;;;;;8.62;54.79785;102820.5;;;;-80
2022/03/20 11:01:47;;;;;;;;;;;;;;;9.15;54.62012;102840.5;;;;-80
2022/03/20 11:07:00;;;;;;;;;;;;;;;9.57;53.64746;102823.7;;;;-81
2022/03/20 11:11:57;;;;;;;;;;;;;;;9.88;53.62109;102819.2;;;;-80
2022/03/20 11:14:10;;;;;;;24.8;12.5;;;;;;;;;;;;;-80
2022/03/20 11:16:48;;;;;;;;;;;;;;;10.03;53.02637;102843.8;;;;-80
2022/03/20 11:21:54;;;;;;;;;;;;;;;10.06;53.11914;102839;;;;-80
2022/03/20 11:26:50;;;;;;;;;;;;;;;10.05;52.85059;102860.6;;;;-80
2022/03/20 11:44:14;;;;;;;;;;;;;;;9.67;52.28223;102881;;;;-82
2022/03/20 11:44:28;;;;;;;27.3;13.6;;;;;;;;;;;;;-82
2022/03/20 11:49:15;;;;;;;;;;;;;;;9.51;52.58398;102873.2;;;;-82
2022/03/20 11:54:27;;;;;;;;;;;;;;;;;;;;;
2022/03/20 12:08:44;;;;;;;;;;;;;;;8.99;53.92188;102853.9;;;;-80
2022/03/20 12:13:47;;;;;;;;;;;;;;;9.04;54.26172;102845.6;;;;-83
2022/03/20 12:14:20;;;;;;;28.2;13.9;;;;;;;;;;;;;-82
2022/03/20 12:18:50;;;;;;;;;;;;;;;9.11;54.19141;102830.2;;;;-80
2022/03/20 12:28:40;;;;;;;;;;;;;;;9.25;54.25293;102823.3;;;;-80
2022/03/20 12:33:35;;;;;;;;;;;;;;;9.36;54.00098;102826.8;;;;-82
2022/03/20 12:38:46;;;;;;;;;;;;;;;9.46;53.3125;102822.1;;;;-81
2022/03/20 12:43:36;;;;;;;;;;;;;;;9.53;52.82129;102819.3;;;;-82
2022/03/20 12:44:25;;;;;;;32.3;14.8;;;;;;;;;;;;;-82
2022/03/20 12:48:36;;;;;;;;;;;;;;;9.58;53.11719;102812.2;;;;-81
2022/03/20 12:53:39;;;;;;;;;;;;;;;9.66;52.88086;102800.2;;;;-81
2022/03/20 12:58:40;;;;;;;;;;;;;;;9.78;52.41797;102797.7;;;;-81
2022/03/20 13:03:45;;;;;;;;;;;;;;;9.91;51.9541;102789.9;;;;-80
2022/03/20 13:08:35;;;;;;;;;;;;;;;10.01;51.86621;102790.1;;;;-82
2022/03/20 13:13:37;;;;;;;;;;;;;;;10.09;51.88672;102783.4;;;;-82
2022/03/20 13:14:16;;;;;;;33.3;15.9;;;;;;;;;;;;;-80
2022/03/20 13:18:37;;;;;;;;;;;;;;;10.11;51.11816;102782.9;;;;-83
2022/03/20 13:23:34;;;;;;;;;;;;;;;10.07;51.62695;102772.3;;;;-81
2022/03/20 13:28:40;;;;;;;;;;;;;;;10.08;51.81738;102767.1;;;;-83
2022/03/20 13:33:40;;;;;;;;;;;;;;;10.16;51.99414;102755.8;;;;-80
2022/03/20 13:38:45;;;;;;;;;;;;;;;10.32;52.125;102761.7;;;;-82
2022/03/20 13:43:36;;;;;;;;;;;;;;;10.46;51.90723;102765.7;;;;-81
2022/03/20 13:44:17;;;;;;;32.9;15.5;;;;;;;;;;;;;-83
2022/03/20 13:48:34;;;;;;;;;;;;;;;10.53;52.21777;102763;;;;-80
2022/03/20 13:53:35;;;;;;;;;;;;;;;10.53;52.47461;102763.2;;;;-82
2022/03/20 13:58:37;;;;;;;;;;;;;;;10.43;52.50684;102761.7;;;;-81
2022/03/20 14:03:33;;;;;;;;;;;;;;;10.37;52.55566;102769.9;;;;-81
2022/03/20 14:08:52;;;;;;;;;;;;;;;10.34;52.70605;102761.4;;;;-81
2022/03/20 14:13:34;;;;;;;;;;;;;;;10.28;52.3877;102772.2;;;;-82
2022/03/20 14:14:22;;;;;;;33;16.4;;;;;;;;;;;;;-82
2022/03/20 14:18:37;;;;;;;;;;;;;;;10.19;52.03125;102774.8;;;;-81
2022/03/20 14:23:34;;;;;;;;;;;;;;;10.08;51.94043;102767.6;;;;-80
2022/03/20 14:28:40;;;;;;;;;;;;;;;10.04;52.40234;102763.5;;;;-84
2022/03/20 14:43:36;;;;;;;;;;;;;;;10;52.03223;102759.1;;;;-81
2022/03/20 14:44:21;;;;;;;31.1;16.2;;;;;;;;;;;;;-81
2022/03/20 14:48:33;;;;;;;;;;;;;;;9.94;52.1123;102749.8;;;;-82
2022/03/20 15:07:13;;;;;;;;;;;;;;;10.01;53.10254;102751;;;;-81
2022/03/20 15:11:58;;;;;;;;;;;;;;;10.09;52.87891;102755;;;;-81
2022/03/20 15:14:27;;;;;;;35.1;17.7;;;;;;;;;;;;;-81
2022/03/20 15:17:00;;;;;;;;;;;;;;;10.12;52.02246;102748.6;;;;-82
2022/03/20 15:22:02;;;;;;;;;;;;;;;10.17;51.77246;102747.2;;;;-81
2022/03/20 15:26:59;;;;;;;;;;;;;;;10.22;52.01367;102746.9;;;;-81
2022/03/20 15:32:04;;;;;;;;;;;;;;;10.28;51.70801;102735.3;;;;-81
2022/03/20 15:37:01;;;;;;;;;;;;;;;10.36;51.29297;102731.6;;;;-81
2022/03/20 15:42:01;;;;;;;;;;;;;;;10.42;51.52441;102730.2;;;;-81
2022/03/20 15:44:27;;;;;;;31.3;15.6;;;;;;;;;;;;;-80
2022/03/20 15:47:02;;;;;;;;;;;;;;;10.43;52.13867;102724.9;;;;-81
2022/03/20 15:52:01;;;;;;;;;;;;;;;10.41;52.62598;102718.8;;;;-80
2022/03/20 15:57:06;;;;;;;;;;;;;;;10.38;52.63379;102713.2;;;;-81
2022/03/20 16:02:00;;;;;;;;;;;;;;;10.31;52.95996;102712.4;;;;-80
2022/03/20 16:07:00;;;;;;;;;;;;;;;10.24;53.46484;102709.6;;;;-81
2022/03/20 16:12:01;;;;;;;;;;;;;;;10.14;53.27441;102710.8;;;;-82
2022/03/20 16:14:27;;;;;;;31.6;15.5;;;;;;;;;;;;;-80
2022/03/20 16:16:57;;;;;;;;;;;;;;;10.01;53.14746;102719;;;;-82
2022/03/20 16:22:02;;;;;;;;;;;;;;;9.88;53.56445;102717.1;;;;-82
2022/03/20 16:32:14;;;;;;;;;;;;;;;9.73;54.4248;102727.6;;;;-82
2022/03/20 16:36:57;;;;;;;;;;;;;;;9.71;54.36719;102729.5;;;;-81
2022/03/20 16:41:57;;;;;;;;;;;;;;;9.68;54.39746;102734.3;;;;-82
2022/03/20 16:44:26;;;;;;;30.9;15.4;;;;;;;;;;;;;-82
2022/03/20 16:46:58;;;;;;;;;;;;;;;9.61;54.27637;102732.6;;;;-79
2022/03/20 16:52:00;;;;;;;;;;;;;;;9.49;54.5625;102737.9;;;;-82
2022/03/20 16:56:57;;;;;;;;;;;;;;;9.37;54.61523;102737.4;;;;-80
2022/03/20 17:01:57;;;;;;;;;;;;;;;9.22;54.58496;102737.8;;;;-79
2022/03/20 17:07:00;;;;;;;;;;;;;;;9.05;54.51855;102745.3;;;;-80
2022/03/20 17:12:10;;;;;;;;;;;;;;;8.91;54.94531;102749.4;;;;-82
2022/03/20 17:14:23;;;;;;;34.1;16.2;;;;;;;;;;;;;-82
2022/03/20 17:16:57;;;;;;;;;;;;;;;8.78;54.82813;102772.8;;;;-84
2022/03/20 17:22:00;;;;;;;;;;;;;;;8.66;55.71289;102811.1;;;;-78
2022/03/20 17:27:00;;;;;;;;;;;;;;;8.49;56.3457;102812.1;;;;-80
2022/03/20 17:32:04;;;;;;;;;;;;;;;8.32;56.30078;102824.3;;;;-80
2022/03/20 17:36:57;;;;;;;;;;;;;;;8.12;56.9834;102821.8;;;;-80
2022/03/20 17:42:00;;;;;;;;;;;;;;;7.92;56.87891;102820.2;;;;-80
2022/03/20 17:44:35;;;;;;;33.1;16.1;;;;;;;;;;;;;-79
2022/03/20 17:46:58;;;;;;;;;;;;;;;7.74;57.50977;102821.5;;;;-80
2022/03/20 17:51:59;;;;;;;;;;;;;;;7.55;57.39453;102824.7;;;;-81
2022/03/20 17:57:00;;;;;;;;;;;;;;;7.36;57.8252;102830.8;;;;-79
2022/03/20 18:07:41;;;;;;;;;;;;;;;7.17;58.27344;102839.6;;;;-79
2022/03/20 18:12:02;;;;;;;;;;;;;;;6.82;58.84473;102854.8;;;;-81
2022/03/20 18:14:24;;;;;;;31.7;14.5;;;;;;;;;;;;;-80
2022/03/20 18:16:57;;;;;;;;;;;;;;;6.67;59.06641;102859;;;;-80
2022/03/20 18:21:57;;;;;;;;;;;;;;;6.5;59.02051;102864.1;;;;-81
2022/03/20 18:26:58;;;;;;;;;;;;;;;6.37;59.62109;102870.3;;;;-80
2022/03/20 18:31:58;;;;;;;;;;;;;;;6.23;59.59082;102874.3;;;;-81
2022/03/20 18:37:00;;;;;;;;;;;;;;;6.11;59.68652;102892.1;;;;-83
2022/03/20 18:41:58;;;;;;;;;;;;;;;5.97;60.12891;102895.6;;;;-80
2022/03/20 18:44:25;;;;;;;29.3;13.9;;;;;;;;;;;;;-79
2022/03/20 18:46:57;;;;;;;;;;;;;;;5.86;60.3877;102904.2;;;;-82
2022/03/20 18:51:57;;;;;;;;;;;;;;;5.74;60.41602;102915;;;;-81
2022/03/20 18:56:58;;;;;;;;;;;;;;;5.64;60.85156;102916.2;;;;-81
2022/03/20 19:02:00;;;;;;;;;;;;;;;5.54;60.93848;102921;;;;-81
2022/03/20 19:07:00;;;;;;;;;;;;;;;5.47;60.88379;102928.6;;;;-81
2022/03/20 19:11:58;;;;;;;;;;;;;;;5.37;60.80371;102936.4;;;;-84
2022/03/20 19:14:30;;;;;;;28.9;13;;;;;;;;;;;;;-81
2022/03/20 19:16:59;;;;;;;;;;;;;;;5.26;60.75391;102937.7;;;;-82
2022/03/20 19:21:57;;;;;;;;;;;;;;;5.15;61.02441;102942.2;;;;-79
2022/03/20 19:27:00;;;;;;;;;;;;;;;5.06;61.19824;102942.9;;;;-81
2022/03/20 19:31:57;;;;;;;;;;;;;;;4.97;61.14258;102944.1;;;;-80
2022/03/20 19:41:57;;;;;;;;;;;;;;;4.81;61.51465;102952.4;;;;-81
2022/03/20 19:44:25;;;;;;;32;14.3;;;;;;;;;;;;;-79
2022/03/20 19:46:57;;;;;;;;;;;;;;;4.75;61.72559;102962.6;;;;-81
2022/03/20 19:51:57;;;;;;;;;;;;;;;4.67;61.6709;102963.9;;;;-79
2022/03/20 19:56:57;;;;;;;;;;;;;;;4.62;61.37793;102965;;;;-81
2022/03/20 20:01:59;;;;;;;;;;;;;;;4.55;61.35742;102962.1;;;;-77
2022/03/20 20:07:00;;;;;;;;;;;;;;;4.49;61.52441;102966.6;;;;-79
2022/03/20 20:11:57;;;;;;;;;;;;;;;4.41;61.32617;102963.8;;;;-79
2022/03/20 20:16:58;;;;;;;;;;;;;;;4.34;61.43652;102968.5;;;;-82
2022/03/20 20:21:57;;;;;;;;;;;;;;;4.27;61.48145;102972.7;;;;-79
2022/03/20 20:26:58;;;;;;;;;;;;;;;4.2;61.38379;102978.9;;;;-80
2022/03/20 20:31:58;;;;;;;;;;;;;;;4.13;61.63672;102987.7;;;;-80
2022/03/20 20:36:57;;;;;;;;;;;;;;;4.05;61.86719;102995.8;;;;-80
2022/03/20 20:41:57;;;;;;;;;;;;;;;3.99;62.55859;103000;;;;-80
2022/03/20 20:44:27;;;;;;;31.2;13.6;;;;;;;;;;;;;-81
2022/03/20 20:47:05;;;;;;;;;;;;;;;3.95;62.29102;102994.8;;;;-79
2022/03/20 20:51:58;;;;;;;;;;;;;;;3.92;62.25293;102990.8;;;;-80
2022/03/20 20:56:57;;;;;;;;;;;;;;;3.88;62.08301;102988.2;;;;-79
2022/03/20 21:01:59;;;;;;;;;;;;;;;3.86;62.35352;102986.9;;;;-81
2022/03/20 21:11:58;;;;;;;;;;;;;;;3.8;62.39941;102989.4;;;;-80
2022/03/20 21:14:26;;;;;;;30.9;13.9;;;;;;;;;;;;;-80
2022/03/20 21:17:00;;;;;;;;;;;;;;;3.75;62.5791;102987.6;;;;-80
2022/03/20 21:21:58;;;;;;;;;;;;;;;3.72;62.68359;102991.9;;;;-79
2022/03/20 21:26:57;;;;;;;;;;;;;;;3.68;62.875;102992;;;;-80
2022/03/20 21:31:57;;;;;;;;;;;;;;;3.66;62.65234;102989;;;;-80
2022/03/20 21:36:58;;;;;;;;;;;;;;;3.62;62.48438;102988.5;;;;-79
2022/03/20 21:41:58;;;;;;;;;;;;;;;3.59;63.57324;102993.4;;;;-79
2022/03/20 21:44:28;;;;;;;32.3;15.2;;;;;;;;;;;;;-79
2022/03/20 21:46:57;;;;;;;;;;;;;;;3.54;63.51074;102994.1;;;;-80
2022/03/20 21:51:57;;;;;;;;;;;;;;;3.5;63.6377;102992.8;;;;-79
2022/03/20 21:56:57;;;;;;;;;;;;;;;3.45;64.47168;102998.1;;;;-80
2022/03/20 22:02:02;;;;;;;;;;;;;;;3.42;64.04004;102990.1;;;;-81
2022/03/20 22:06:58;;;;;;;;;;;;;;;3.41;64.12598;102987.2;;;;-79
2022/03/20 22:11:57;;;;;;;;;;;;;;;3.38;64.72266;102993.5;;;;-80
2022/03/20 22:14:26;;;;;;;40.2;16.6;;;;;;;;;;;;;-82
2022/03/20 22:16:57;;;;;;;;;;;;;;;3.36;64.92676;102991.8;;;;-79
2022/03/20 22:21:57;;;;;;;;;;;;;;;3.34;64.69531;102990.7;;;;-79
2022/03/20 22:26:57;;;;;;;;;;;;;;;3.32;64.72559;102988.2;;;;-80
2022/03/20 22:31:57;;;;;;;;;;;;;;;3.3;65.35547;102985.4;;;;-80
2022/03/20 22:41:58;;;;;;;;;;;;;;;3.23;65.33496;102985.3;;;;-78
2022/03/20 22:44:26;;;;;;;39.6;16.9;;;;;;;;;;;;;-79
2022/03/20 22:46:57;;;;;;;;;;;;;;;3.19;65.22949;102985.4;;;;-81
2022/03/20 22:51:58;;;;;;;;;;;;;;;3.18;65.0752;102987.1;;;;-82
2022/03/20 22:56:57;;;;;;;;;;;;;;;3.14;65.52734;102988;;;;-79
2022/03/20 23:01:57;;;;;;;;;;;;;;;3.1;65.68652;102986.1;;;;-81
2022/03/20 23:06:57;;;;;;;;;;;;;;;3.07;65.60449;102985.9;;;;-80
2022/03/20 23:11:57;;;;;;;;;;;;;;;3.05;65.39551;102988.9;;;;-82
2022/03/20 23:14:26;;;;;;;39.4;16.6;;;;;;;;;;;;;-80
2022/03/20 23:16:57;;;;;;;;;;;;;;;3.03;65.66309;102988.2;;;;-81
2022/03/20 23:22:01;;;;;;;;;;;;;;;2.99;65.5498;102994.1;;;;-80
2022/03/20 23:26:58;;;;;;;;;;;;;;;2.97;66.64844;103001.4;;;;-81
2022/03/20 23:31:57;;;;;;;;;;;;;;;2.94;66.61035;103005.6;;;;-81
2022/03/20 23:36:57;;;;;;;;;;;;;;;2.93;66.55371;103003.2;;;;-80
2022/03/20 23:44:30;;;;;;;38.6;16.9;;;;;;;;;;;;;-81
2022/03/20 23:46:57;;;;;;;;;;;;;;;2.87;66.45801;103011.2;;;;-80
2022/03/20 23:51:58;;;;;;;;;;;;;;;2.84;66.56348;103009.2;;;;-81
2022/03/20 23:56:57;;;;;;;;;;;;;;;2.82;66.82031;103017.9;;;;-79
